createdAt,value
2016-04-20T08:29:34.458Z,9752
2016-04-20T08:30:34.430Z,12048
2016-04-20T08:31:34.433Z,9932
2016-04-20T08:32:34.419Z,11112
2016-04-20T08:33:39.235Z,13168
2016-04-20T08:34:34.425Z,23264
2016-04-20T08:35:34.396Z,27648
2016-04-20T08:36:34.790Z,39040
2016-04-20T08:37:34.402Z,45376
2016-04-20T08:38:34.389Z,13032
2016-04-20T08:39:34.376Z,11896
2016-04-20T08:40:34.363Z,10344
2016-04-20T08:41:34.366Z,10336
2016-04-20T08:42:34.446Z,10696
2016-04-20T08:43:34.356Z,14036
2016-04-20T08:44:34.343Z,13852
2016-04-20T08:45:34.330Z,47488
2016-04-20T08:46:34.332Z,12804
2016-04-20T08:47:34.320Z,20896
2016-04-20T08:48:34.323Z,48160
2016-04-20T08:49:34.341Z,51360
2016-04-20T08:50:34.297Z,41440
2016-04-20T08:51:34.284Z,12396
2016-04-20T08:52:34.348Z,11036
2016-04-20T08:53:34.273Z,10208
2016-04-20T08:54:34.276Z,10116
2016-04-20T08:55:34.263Z,9576
2016-04-20T08:56:34.250Z,9668
2016-04-20T08:57:34.252Z,10836
2016-04-20T08:58:34.240Z,11852
2016-04-20T08:59:34.242Z,11708
2016-04-20T09:00:34.230Z,11124
2016-04-20T09:01:34.264Z,11124
2016-04-20T09:02:34.250Z,11236
2016-04-20T09:03:34.191Z,12756
2016-04-20T09:04:34.209Z,31200
2016-04-20T09:05:34.180Z,42496
2016-04-20T09:06:34.182Z,57664
2016-04-20T09:07:34.171Z,31424
2016-04-20T09:08:34.173Z,22080
2016-04-20T09:09:34.160Z,22016
2016-04-20T09:10:34.163Z,10964
2016-04-20T09:11:34.135Z,9604
2016-04-20T09:12:34.152Z,9180
2016-04-20T09:13:34.124Z,10160
2016-04-20T09:14:34.127Z,10476
2016-04-20T09:15:34.114Z,10636
2016-04-20T09:16:34.085Z,16160
2016-04-20T09:17:34.103Z,21280
2016-04-20T09:18:34.090Z,18112
2016-04-20T09:19:34.078Z,43328
2016-04-20T09:20:34.081Z,30848
2016-04-20T09:21:34.098Z,25600
2016-04-20T09:22:33.741Z,11036
2016-04-20T09:23:34.056Z,11168
2016-04-20T09:24:34.044Z,12820
2016-04-20T09:25:34.046Z,11300
2016-04-20T09:26:34.033Z,10528
2016-04-20T09:27:34.035Z,22080
2016-04-20T09:28:34.023Z,11148
2016-04-20T09:29:33.854Z,8436
2016-04-20T09:30:33.997Z,7052
2016-04-20T09:31:33.843Z,8248
2016-04-20T09:32:33.987Z,29408
2016-04-20T09:33:33.989Z,13960
2016-04-20T09:34:33.960Z,46112
2016-04-20T09:35:33.963Z,38752
2016-04-20T09:36:33.934Z,33856
2016-04-20T09:37:33.937Z,30656
2016-04-20T09:38:33.939Z,21280
2016-04-20T09:39:33.928Z,37600
2016-04-20T09:40:33.914Z,38272
2016-04-20T09:41:33.901Z,32096
2016-04-20T09:42:33.904Z,22208
2016-04-20T09:43:33.891Z,19264
2016-04-20T09:44:33.878Z,28448
2016-04-20T09:45:33.880Z,13716
2016-04-20T09:46:33.867Z,15328
2016-04-20T09:47:33.855Z,12088
2016-04-20T09:48:33.858Z,11088
2016-04-20T09:49:33.861Z,11192
2016-04-20T09:50:33.832Z,9916
2016-04-20T09:51:33.835Z,9204
2016-04-20T09:52:33.837Z,10104
2016-04-20T09:53:33.824Z,32384
2016-04-20T09:54:33.811Z,34880
2016-04-20T09:55:33.830Z,34848
2016-04-20T09:56:33.816Z,42720
2016-04-20T09:57:33.819Z,55264
2016-04-20T09:58:33.775Z,62464
2016-04-20T09:59:33.777Z,69888
2016-04-20T10:00:34.280Z,61920
2016-04-20T10:01:33.798Z,50400
2016-04-20T10:02:33.754Z,44576
2016-04-20T10:03:33.773Z,46528
2016-04-20T10:04:33.759Z,49600
2016-04-20T10:05:33.747Z,35776
2016-04-20T10:06:33.765Z,34528
2016-04-20T10:07:33.798Z,33920
2016-04-20T10:08:33.942Z,47104
2016-04-20T10:09:33.742Z,43904
2016-04-20T10:10:33.745Z,40704
2016-04-20T10:11:33.732Z,53728
2016-04-20T10:12:33.719Z,58752
2016-04-20T10:13:33.722Z,60032
2016-04-20T10:14:33.709Z,71840
2016-04-20T10:15:33.712Z,67904
2016-04-20T10:16:33.714Z,72416
2016-04-20T10:17:33.717Z,70272
2016-04-20T10:18:33.704Z,55104
2016-04-20T10:19:33.722Z,61504
2016-04-20T10:20:33.694Z,68224
2016-04-20T10:21:33.712Z,74944
2016-04-20T10:22:33.699Z,44768
2016-04-20T10:23:33.686Z,34112
2016-04-20T10:24:33.689Z,49344
2016-04-20T10:25:33.707Z,58048
2016-04-20T10:26:33.694Z,66656
2016-04-20T10:27:33.712Z,63424
2016-04-20T10:28:33.684Z,36320
2016-04-20T10:29:33.687Z,75136
2016-04-20T10:30:33.705Z,62112
2016-04-20T10:31:33.692Z,83872
2016-04-20T10:32:33.695Z,77920
2016-04-20T10:33:33.698Z,53184
2016-04-20T10:34:33.701Z,56352
2016-04-20T10:35:33.547Z,68544
2016-04-20T10:36:33.690Z,59200
2016-04-20T10:37:33.692Z,67360
2016-04-20T10:38:33.695Z,68896
2016-04-20T10:39:33.682Z,62080
2016-04-20T10:40:33.700Z,24800
2016-04-20T10:41:33.704Z,55392
2016-04-20T10:42:33.690Z,24128
2016-04-20T10:43:33.693Z,43584
2016-04-20T10:44:33.695Z,59680
2016-04-20T10:45:33.698Z,96864
2016-04-20T10:46:33.701Z,99296
2016-04-20T10:47:33.704Z,45632
2016-04-20T10:48:33.706Z,89920
2016-04-20T10:49:33.709Z,73152
2016-04-20T10:50:33.711Z,65120
2016-04-20T10:51:33.714Z,67552
2016-04-20T10:52:33.717Z,52416
2016-04-20T10:53:33.719Z,68384
2016-04-20T10:54:33.707Z,83712
2016-04-20T10:55:33.710Z,83264
2016-04-20T10:56:33.713Z,67136
2016-04-20T10:57:33.699Z,65888
2016-04-20T10:58:33.718Z,80608
2016-04-20T10:59:33.720Z,81088
2016-04-20T11:00:33.738Z,84384
2016-04-20T11:01:33.726Z,87424
2016-04-20T11:02:33.729Z,91424
2016-04-20T11:03:33.732Z,91232
2016-04-20T11:04:33.749Z,87552
2016-04-20T11:05:33.737Z,83808
2016-04-20T11:06:33.770Z,80064
2016-04-20T11:07:33.742Z,78976
2016-04-20T11:08:33.745Z,82048
2016-04-20T11:09:33.748Z,87296
2016-04-20T11:10:33.765Z,89248
2016-04-20T11:11:33.753Z,88192
2016-04-20T11:12:33.756Z,85600
2016-04-20T11:13:33.774Z,85120
2016-04-20T11:14:33.776Z,88416
2016-04-20T11:15:33.779Z,91648
2016-04-20T11:16:33.781Z,92992
2016-04-20T11:17:33.784Z,88928
2016-04-20T11:18:33.787Z,87968
2016-04-20T11:19:33.806Z,82400
2016-04-20T11:20:34.153Z,82176
2016-04-20T11:21:33.827Z,83008
2016-04-20T11:22:35.158Z,80000
2016-04-20T11:23:34.160Z,78272
2016-04-20T11:24:33.835Z,79712
2016-04-20T11:25:33.822Z,83936
2016-04-20T11:26:33.840Z,88672
2016-04-20T11:27:33.858Z,90752
2016-04-20T11:28:33.845Z,93600
2016-04-20T11:29:33.863Z,94816
2016-04-20T11:30:33.866Z,91392
2016-04-20T11:31:33.869Z,85728
2016-04-20T11:32:33.888Z,81440
2016-04-20T11:33:33.891Z,81376
2016-04-20T11:34:33.908Z,82368
2016-04-20T11:35:33.943Z,85856
2016-04-20T11:36:33.913Z,91680
2016-04-20T11:37:33.932Z,97472
2016-04-20T11:38:33.935Z,98560
2016-04-20T11:39:33.938Z,97120
2016-04-20T11:40:33.940Z,97824
2016-04-20T11:41:33.959Z,98272
2016-04-20T11:42:33.961Z,100000
2016-04-20T11:43:33.964Z,102464
2016-04-20T11:44:33.981Z,105152
2016-04-20T11:45:33.970Z,105696
2016-04-20T11:46:33.972Z,106048
2016-04-20T11:47:33.989Z,104320
2016-04-20T11:48:33.993Z,101696
2016-04-20T11:49:33.995Z,98464
2016-04-20T11:50:33.998Z,94272
2016-04-20T11:51:34.017Z,92800
2016-04-20T11:52:34.003Z,89696
2016-04-20T11:53:34.022Z,84000
2016-04-20T11:54:34.025Z,87168
2016-04-20T11:55:34.027Z,89792
2016-04-20T11:56:34.030Z,94560
2016-04-20T11:57:34.032Z,100416
2016-04-20T11:58:34.051Z,103584
2016-04-20T11:59:34.070Z,106464
2016-04-20T12:00:34.072Z,107008
2016-04-20T12:01:34.060Z,104864
2016-04-20T12:02:34.077Z,101632
2016-04-20T12:03:34.110Z,97248
2016-04-20T12:04:34.082Z,95904
2016-04-20T12:05:34.289Z,94880
2016-04-20T12:06:34.088Z,96640
2016-04-20T12:07:34.091Z,98688
2016-04-20T12:08:34.390Z,103072
2016-04-20T12:09:34.112Z,105152
2016-04-20T12:10:34.114Z,105472
2016-04-20T12:11:34.132Z,103424
2016-04-20T12:12:34.418Z,96736
2016-04-20T12:13:34.138Z,90048
2016-04-20T12:14:34.126Z,84128
2016-04-20T12:15:34.143Z,84576
2016-04-20T12:16:34.005Z,86336
2016-04-20T12:17:34.149Z,91232
2016-04-20T12:18:34.152Z,95488
2016-04-20T12:19:34.154Z,97920
2016-04-20T12:20:34.439Z,97184
2016-04-20T12:21:34.175Z,92736
2016-04-20T12:22:34.178Z,87904
2016-04-20T12:23:34.181Z,83424
2016-04-20T12:24:34.183Z,80992
2016-04-20T12:25:34.186Z,81216
2016-04-20T12:26:34.188Z,87456
2016-04-20T12:27:34.207Z,91936
2016-04-20T12:28:34.210Z,96608
2016-04-20T12:29:34.228Z,99872
2016-04-20T12:30:34.215Z,103296
2016-04-20T12:31:34.250Z,101856
2016-04-20T12:32:34.235Z,99488
2016-04-20T12:33:34.254Z,102688
2016-04-20T12:34:34.241Z,105184
2016-04-20T12:35:34.244Z,108768
2016-04-20T12:36:34.247Z,110112
2016-04-20T12:37:34.250Z,110656
2016-04-20T12:38:34.252Z,108160
2016-04-20T12:39:34.271Z,105152
2016-04-20T12:40:34.274Z,100288
2016-04-20T12:41:34.277Z,96160
2016-04-20T12:42:34.279Z,94528
2016-04-20T12:43:34.281Z,93856
2016-04-20T12:44:34.331Z,96320
2016-04-20T12:45:34.318Z,98912
2016-04-20T12:46:34.306Z,103744
2016-04-20T12:47:34.324Z,103456
2016-04-20T12:48:34.154Z,101920
2016-04-20T12:49:34.329Z,93376
2016-04-20T12:50:34.331Z,84768
2016-04-20T12:51:34.319Z,76000
2016-04-20T12:52:34.337Z,72704
2016-04-20T12:53:34.339Z,74656
2016-04-20T12:54:34.342Z,84096
2016-04-20T12:55:34.361Z,95584
2016-04-20T12:56:34.348Z,106752
2016-04-20T12:57:34.366Z,107360
2016-04-20T12:58:34.369Z,97536
2016-04-20T12:59:34.372Z,88224
2016-04-20T13:00:34.421Z,77536
2016-04-20T13:01:34.391Z,73472
2016-04-20T13:02:34.379Z,76576
2016-04-20T13:03:34.398Z,81120
2016-04-20T13:04:34.385Z,83808
2016-04-20T13:05:34.403Z,86560
2016-04-20T13:06:34.405Z,86080
2016-04-20T13:07:34.393Z,80992
2016-04-20T13:08:34.411Z,72672
2016-04-20T13:09:34.399Z,66624
2016-04-20T13:10:34.416Z,66400
2016-04-20T13:11:34.434Z,69408
2016-04-20T13:12:34.453Z,74208
2016-04-20T13:13:34.424Z,78304
2016-04-20T13:14:34.443Z,80704
2016-04-20T13:15:34.446Z,79136
2016-04-20T13:16:34.448Z,78240
2016-04-20T13:17:34.467Z,77696
2016-04-20T13:18:34.454Z,79648
2016-04-20T13:19:34.440Z,81920
2016-04-20T13:20:34.475Z,84000
2016-04-20T13:21:34.462Z,85024
2016-04-20T13:22:34.464Z,84000
2016-04-20T13:23:34.467Z,82560
2016-04-20T13:24:34.469Z,81984
2016-04-20T13:25:34.488Z,80512
2016-04-20T13:26:34.475Z,79456
2016-04-20T13:27:34.478Z,79168
2016-04-20T13:28:34.512Z,79424
2016-04-20T13:29:34.483Z,79104
2016-04-20T13:30:34.502Z,80032
2016-04-20T13:31:34.504Z,78336
2016-04-20T13:32:34.523Z,76416
2016-04-20T13:33:34.525Z,73056
2016-04-20T13:34:34.528Z,73824
2016-04-20T13:35:34.515Z,74400
2016-04-20T13:36:34.518Z,76896
2016-04-20T13:37:34.520Z,80992
2016-04-20T13:38:34.524Z,82880
2016-04-20T13:39:34.526Z,82368
2016-04-20T13:40:34.529Z,82624
2016-04-20T13:41:34.547Z,79840
2016-04-20T13:42:34.549Z,78816
2016-04-20T13:43:34.551Z,79424
2016-04-20T13:44:34.540Z,82272
2016-04-20T13:45:34.542Z,84576
2016-04-20T13:46:34.560Z,88672
2016-04-20T13:47:34.562Z,91392
2016-04-20T13:48:34.566Z,88736
2016-04-20T13:49:34.568Z,83008
2016-04-20T13:50:34.556Z,75712
2016-04-20T13:51:34.573Z,71328
2016-04-20T13:52:34.577Z,66240
2016-04-20T13:53:34.595Z,64160
2016-04-20T13:54:34.581Z,67744
2016-04-20T13:55:34.584Z,71712
2016-04-20T13:56:34.587Z,73568
2016-04-20T13:57:34.605Z,76064
2016-04-20T13:58:34.656Z,77056
2016-04-20T13:59:34.611Z,78112
2016-04-20T14:00:34.614Z,79040
2016-04-20T14:01:34.601Z,80160
2016-04-20T14:02:34.603Z,82048
2016-04-20T14:03:34.622Z,81888
2016-04-20T14:04:34.624Z,80928
2016-04-20T14:05:34.611Z,80608
2016-04-20T14:06:34.629Z,79584
2016-04-20T14:07:34.617Z,80224
2016-04-20T14:08:34.838Z,80768
2016-04-20T14:09:34.638Z,82240
2016-04-20T14:10:34.641Z,84192
2016-04-20T14:11:34.643Z,83488
2016-04-20T14:12:34.630Z,81184
2016-04-20T14:13:34.930Z,76672
2016-04-20T14:14:34.636Z,72544
2016-04-20T14:15:34.638Z,68672
2016-04-20T14:16:34.484Z,66368
2016-04-20T14:17:34.643Z,66752
2016-04-20T14:18:34.646Z,67712
2016-04-20T14:19:34.665Z,68224
2016-04-20T14:20:34.652Z,68800
2016-04-20T14:21:34.670Z,66848
2016-04-20T14:22:34.658Z,63520
2016-04-20T14:23:34.660Z,61408
2016-04-20T14:24:34.663Z,60384
2016-04-20T14:25:34.666Z,59392
2016-04-20T14:26:34.669Z,57568
2016-04-20T14:27:34.671Z,55712
2016-04-20T14:28:34.659Z,52256
2016-04-20T14:29:34.677Z,50912
2016-04-20T14:30:34.680Z,50080
2016-04-20T14:31:34.682Z,51136
2016-04-20T14:32:34.669Z,53824
2016-04-20T14:33:34.703Z,57664
2016-04-20T14:34:34.675Z,59680
2016-04-20T14:35:34.709Z,61824
2016-04-20T14:36:34.695Z,63008
2016-04-20T14:37:34.683Z,61568
2016-04-20T14:38:34.686Z,61440
2016-04-20T14:39:34.704Z,62528
2016-04-20T14:40:34.691Z,64768
2016-04-20T14:41:34.694Z,67360
2016-04-20T14:42:34.681Z,70144
2016-04-20T14:43:34.683Z,72768
2016-04-20T14:44:34.702Z,72704
2016-04-20T14:45:34.689Z,71104
2016-04-20T14:46:34.723Z,69696
2016-04-20T14:47:34.694Z,69440
2016-04-20T14:48:34.697Z,69248
2016-04-20T14:49:34.700Z,68352
2016-04-20T14:50:34.702Z,66656
2016-04-20T14:51:34.721Z,64960
2016-04-20T14:52:35.082Z,63712
2016-04-20T14:53:34.694Z,60416
2016-04-20T14:54:34.713Z,57152
2016-04-20T14:55:34.700Z,56288
2016-04-20T14:56:34.702Z,55680
2016-04-20T14:57:34.721Z,55328
2016-04-20T14:58:34.724Z,55136
2016-04-20T14:59:34.743Z,53696
2016-04-20T15:00:34.713Z,52768
2016-04-20T15:01:34.732Z,49856
2016-04-20T15:02:34.718Z,47072
2016-04-20T15:03:34.753Z,44448
2016-04-20T15:04:34.723Z,45344
2016-04-20T15:05:34.726Z,46560
2016-04-20T15:06:34.745Z,46944
2016-04-20T15:07:34.732Z,45632
2016-04-20T15:08:34.720Z,45856
2016-04-20T15:09:34.723Z,44352
2016-04-20T15:10:34.725Z,42496
2016-04-20T15:11:34.728Z,42976
2016-04-20T15:12:34.714Z,43936
2016-04-20T15:13:34.717Z,46848
2016-04-20T15:14:34.719Z,48704
2016-04-20T15:15:34.722Z,50112
2016-04-20T15:16:34.710Z,50752
2016-04-20T15:17:34.712Z,50272
2016-04-20T15:18:34.761Z,50336
2016-04-20T15:19:34.718Z,49952
2016-04-20T15:20:34.736Z,50208
2016-04-20T15:21:34.660Z,50848
2016-04-20T15:22:34.710Z,50784
2016-04-20T15:23:34.713Z,49824
2016-04-20T15:24:34.731Z,49088
2016-04-20T15:25:34.718Z,47264
2016-04-20T15:26:34.737Z,46016
2016-04-20T15:27:34.723Z,45280
2016-04-20T15:28:34.743Z,44896
2016-04-20T15:29:34.729Z,43904
2016-04-20T15:30:34.716Z,42560
2016-04-20T15:31:34.718Z,42816
2016-04-20T15:32:34.706Z,42432
2016-04-20T15:33:34.709Z,41856
2016-04-20T15:34:34.726Z,42624
2016-04-20T15:35:34.714Z,44256
2016-04-20T15:36:34.783Z,45664
2016-04-20T15:37:34.708Z,47296
2016-04-20T15:38:34.742Z,47872
2016-04-20T15:39:34.697Z,48384
2016-04-20T15:40:34.701Z,48960
2016-04-20T15:41:34.703Z,48992
2016-04-20T15:42:34.722Z,47232
2016-04-20T15:43:34.694Z,45120
2016-04-20T15:44:34.697Z,43072
2016-04-20T15:45:34.683Z,40320
2016-04-20T15:46:34.686Z,39936
2016-04-20T15:47:34.783Z,40352
2016-04-20T15:48:34.676Z,41120
2016-04-20T15:49:34.710Z,41696
2016-04-20T15:50:34.681Z,40224
2016-04-20T15:51:34.558Z,39648
2016-04-20T15:52:34.686Z,38784
2016-04-20T15:53:34.674Z,39616
2016-04-20T15:54:34.660Z,40896
2016-04-20T15:55:34.663Z,42176
2016-04-20T15:56:34.681Z,43488
2016-04-20T15:57:34.699Z,43584
2016-04-20T15:58:34.693Z,42400
2016-04-20T15:59:34.752Z,41088
2016-04-20T16:00:34.625Z,40000
2016-04-20T16:01:34.810Z,39264
2016-04-20T16:02:34.854Z,39680
2016-04-20T16:03:34.942Z,40832
2016-04-20T16:04:34.823Z,41152
2016-04-20T16:06:50.301Z,39520
2016-04-20T16:07:02.926Z,39424
2016-04-20T16:08:02.863Z,38368
2016-04-20T16:09:02.980Z,37664
2016-04-20T16:10:02.880Z,35872
2016-04-20T16:11:02.871Z,33408
2016-04-20T16:12:02.896Z,31104
2016-04-20T16:13:02.886Z,29312
2016-04-20T16:14:02.875Z,28928
2016-04-20T16:15:02.896Z,30048
2016-04-20T16:16:02.885Z,31904
2016-04-20T16:17:02.888Z,32704
2016-04-20T16:18:02.737Z,32544
2016-04-20T16:19:02.882Z,31168
2016-04-20T16:20:02.869Z,29440
2016-04-20T16:21:02.873Z,27808
2016-04-20T16:22:02.876Z,26208
2016-04-20T16:23:02.880Z,24640
2016-04-20T16:24:02.867Z,23136
2016-04-20T16:25:02.854Z,21440
2016-04-20T16:26:02.857Z,20800
2016-04-20T16:27:02.860Z,21088
2016-04-20T16:28:02.847Z,22528
2016-04-20T16:29:02.897Z,24832
2016-04-20T16:30:02.853Z,26592
2016-04-20T16:31:02.856Z,27488
2016-04-20T16:32:02.874Z,26688
2016-04-20T16:33:02.846Z,24960
2016-04-20T16:34:02.832Z,23328
2016-04-20T16:35:02.835Z,22016
2016-04-20T16:36:02.822Z,21696
2016-04-20T16:37:02.824Z,21760
2016-04-20T16:38:02.827Z,21216
2016-04-20T16:39:02.846Z,19776
2016-04-20T16:40:02.818Z,18272
2016-04-20T16:41:02.820Z,16704
2016-04-20T16:42:02.807Z,15872
2016-04-20T16:43:02.826Z,14080
2016-04-20T16:44:02.797Z,15168
2016-04-20T16:45:02.846Z,16192
2016-04-20T16:46:02.803Z,15520
2016-04-20T16:47:02.805Z,16128
2016-04-20T16:48:02.792Z,17024
2016-04-20T16:49:02.795Z,11908
2016-04-20T16:50:02.798Z,10524
2016-04-20T16:51:02.629Z,7076
2016-04-20T16:52:02.787Z,6976
2016-04-20T16:53:02.790Z,9684
2016-04-20T16:54:02.777Z,12832
2016-04-20T16:55:02.764Z,13728
2016-04-20T16:56:02.767Z,14432
2016-04-20T16:57:02.769Z,14400
2016-04-20T16:58:02.772Z,14080
2016-04-20T16:59:02.775Z,13888
2016-04-20T17:00:02.778Z,13760
2016-04-20T17:01:02.749Z,13792
2016-04-20T17:02:02.767Z,14240
2016-04-20T17:03:02.738Z,14360
2016-04-20T17:04:02.585Z,14456
2016-04-20T17:05:02.744Z,13104
2016-04-20T17:06:02.575Z,12712
2016-04-20T17:07:02.562Z,13248
2016-04-20T17:08:02.580Z,12624
2016-04-20T17:09:02.740Z,12076
2016-04-20T17:10:02.710Z,11356
2016-04-20T17:11:02.729Z,10548
2016-04-20T17:12:02.701Z,9600
2016-04-20T17:13:02.704Z,7692
2016-04-20T17:14:02.721Z,7252
2016-04-20T17:15:02.693Z,8740
2016-04-20T17:16:02.696Z,9620
2016-04-20T17:17:02.683Z,10708
2016-04-20T17:18:02.748Z,11488
2016-04-20T17:19:02.937Z,11348
2016-04-20T17:20:02.675Z,10420
2016-04-20T17:21:02.678Z,9316
2016-04-20T17:22:02.681Z,8232
2016-04-20T17:23:02.653Z,7116
2016-04-20T17:24:02.670Z,6184
2016-04-20T17:25:02.642Z,5508
2016-04-20T17:26:02.489Z,5292
2016-04-20T17:27:02.663Z,6232
2016-04-20T17:28:02.633Z,7360
2016-04-20T17:29:02.636Z,8060
2016-04-20T17:30:02.640Z,8300
2016-04-20T17:31:02.627Z,7956
2016-04-20T17:32:02.613Z,7108
2016-04-20T17:33:02.617Z,6232
2016-04-20T17:34:02.619Z,5332
2016-04-20T17:35:02.622Z,4624
2016-04-20T17:36:02.641Z,4232
2016-04-20T17:37:02.643Z,3616
2016-04-20T17:38:02.489Z,2848
2016-04-20T17:39:02.632Z,3228
2016-04-20T17:40:02.573Z,3812
2016-04-20T17:41:02.576Z,2764
2016-04-20T17:42:02.579Z,1928
2016-04-20T17:43:02.550Z,1856
2016-04-20T17:44:02.552Z,1816
2016-04-20T17:45:02.540Z,1776
2016-04-20T17:46:02.543Z,1736
2016-04-20T17:47:02.529Z,1692
2016-04-20T17:48:02.516Z,1656
2016-04-20T17:49:02.518Z,1620
2016-04-20T17:50:02.507Z,1580
2016-04-20T17:51:02.509Z,1540
2016-04-20T17:52:02.387Z,1504
2016-04-20T17:53:02.373Z,1472
2016-04-20T17:54:07.179Z,1428
2016-04-20T17:55:02.463Z,1388
2016-04-20T17:56:02.465Z,1352
2016-04-20T17:57:02.531Z,1316
2016-04-20T17:58:02.456Z,1276
2016-04-20T17:59:02.442Z,1236
2016-04-20T18:00:02.445Z,1200
2016-04-20T18:01:02.447Z,1164
2016-04-20T18:02:02.247Z,1128
2016-04-20T18:03:02.406Z,1088
2016-04-20T18:04:02.392Z,1052
2016-04-20T18:05:02.428Z,1016
2016-04-20T18:06:02.383Z,984
2016-04-20T18:07:02.243Z,948
2016-04-20T18:08:02.370Z,916
2016-04-20T18:09:02.390Z,884
2016-04-20T18:10:02.329Z,848
2016-04-20T18:11:02.347Z,812
2016-04-20T18:12:02.320Z,780
2016-04-20T18:13:02.744Z,748
2016-04-20T18:14:02.293Z,716
2016-04-20T18:15:02.311Z,684
2016-04-20T18:16:02.299Z,656
2016-04-20T18:17:02.274Z,624
2016-04-20T18:18:02.262Z,592
2016-04-20T18:19:02.248Z,564
2016-04-20T18:20:02.250Z,536
2016-04-20T18:21:02.238Z,504
2016-04-20T18:22:02.276Z,476
2016-04-20T18:23:02.217Z,448
2016-04-20T18:24:02.189Z,424
2016-04-20T18:25:02.191Z,396
2016-04-20T18:26:02.177Z,372
2016-04-20T18:27:02.165Z,348
2016-04-20T18:28:02.167Z,324
2016-04-20T18:29:02.170Z,300
2016-04-20T18:30:02.173Z,280
2016-04-20T18:31:02.113Z,264
2016-04-20T18:32:02.007Z,244
2016-04-20T18:33:02.103Z,220
2016-04-20T18:34:02.090Z,204
2016-04-20T18:35:02.108Z,184
2016-04-20T18:36:02.127Z,172
2016-04-20T18:37:01.786Z,156
2016-04-20T18:38:02.054Z,140
2016-04-20T18:39:02.041Z,128
2016-04-20T18:40:02.029Z,112
2016-04-20T18:41:01.875Z,104
2016-04-20T18:42:02.002Z,96
2016-04-20T18:43:02.005Z,84
2016-04-20T18:44:01.992Z,76
2016-04-20T18:45:01.963Z,64
2016-04-20T18:46:01.965Z,60
2016-04-20T18:47:01.969Z,52
2016-04-20T18:48:01.940Z,48
2016-04-20T18:49:01.959Z,40
2016-04-20T18:50:01.898Z,32
2016-04-20T18:51:01.901Z,28
2016-04-20T18:52:01.919Z,24
2016-04-20T18:53:01.892Z,20
2016-04-20T18:54:01.878Z,16
2016-04-20T18:55:01.865Z,16
2016-04-20T18:56:01.837Z,12
2016-04-20T18:57:01.824Z,12
2016-04-20T18:58:01.827Z,12
2016-04-20T18:59:01.658Z,8
2016-04-20T19:00:02.035Z,8
2016-04-20T19:01:01.789Z,8
2016-04-20T19:02:01.775Z,8
2016-04-20T19:03:01.761Z,4
2016-04-20T19:04:01.749Z,4
2016-04-20T19:05:01.736Z,0
2016-04-20T19:06:01.724Z,4
2016-04-20T19:07:01.727Z,0
2016-04-20T19:08:01.696Z,0
2016-04-20T19:09:01.684Z,4
2016-04-20T19:10:01.702Z,4
2016-04-20T19:11:01.658Z,0
2016-04-20T19:12:01.645Z,0
2016-04-20T19:13:01.633Z,0
2016-04-20T19:14:01.620Z,0
2016-04-20T19:15:01.607Z,0
2016-04-20T19:16:01.626Z,0
2016-04-20T19:17:01.612Z,0
2016-04-20T19:18:01.614Z,0
2016-04-20T19:19:01.570Z,0
2016-04-20T19:20:01.573Z,0
2016-04-20T19:21:01.529Z,0
2016-04-20T19:22:01.517Z,0
2016-04-20T19:23:01.503Z,0
2016-04-20T19:24:01.490Z,0
2016-04-20T19:25:01.492Z,0
2016-04-20T19:26:01.527Z,0
2016-04-20T19:27:01.451Z,0
2016-04-20T19:28:01.454Z,0
2016-04-20T19:29:01.425Z,0
2016-04-20T19:30:01.428Z,0
2016-04-20T19:31:01.259Z,0
2016-04-20T19:32:01.418Z,0
2016-04-20T19:33:01.390Z,0
2016-04-20T19:34:01.205Z,0
2016-04-20T19:35:01.347Z,0
2016-04-20T19:36:01.350Z,0
2016-04-20T19:37:01.182Z,0
2016-04-20T19:38:01.168Z,0
2016-04-20T19:39:01.297Z,0
2016-04-20T19:40:01.299Z,0
2016-04-20T19:41:01.271Z,0
2016-04-20T19:42:01.274Z,0
2016-04-20T19:43:01.260Z,0
2016-04-20T19:44:01.247Z,0
2016-04-20T19:45:01.218Z,0
2016-04-20T19:46:01.206Z,0
2016-04-20T19:47:01.224Z,0
2016-04-20T19:48:01.180Z,0
2016-04-20T19:49:01.182Z,0
2016-04-20T19:50:01.154Z,0
2016-04-20T19:51:01.157Z,0
2016-04-20T19:52:01.159Z,0
2016-04-20T19:53:00.975Z,0
2016-04-20T19:54:01.117Z,0
2016-04-20T19:55:01.089Z,0
2016-04-20T19:56:01.076Z,0
2016-04-20T19:57:01.064Z,0
2016-04-20T19:58:01.050Z,0
2016-04-20T19:59:01.037Z,0
2016-04-20T20:00:01.025Z,0
2016-04-20T20:01:00.997Z,0
2016-04-20T20:02:00.983Z,0
2016-04-20T20:03:00.970Z,0
2016-04-20T20:04:00.972Z,0
2016-04-20T20:05:00.961Z,0
2016-04-20T20:06:00.947Z,0
2016-04-20T20:07:00.919Z,0
2016-04-20T20:08:00.905Z,0
2016-04-20T20:09:01.096Z,0
2016-04-20T20:10:01.285Z,0
2016-04-20T20:11:00.866Z,0
2016-04-20T20:12:00.855Z,0
2016-04-20T20:13:00.840Z,0
2016-04-20T20:14:00.827Z,0
2016-04-20T20:15:00.815Z,0
2016-04-20T20:16:00.802Z,0
2016-04-20T20:17:00.774Z,0
2016-04-20T20:18:00.776Z,0
2016-04-20T20:19:00.763Z,0
2016-04-20T20:20:00.751Z,0
2016-04-20T20:21:00.721Z,0
2016-04-20T20:22:00.594Z,0
2016-04-20T20:23:00.558Z,0
2016-04-20T20:24:00.732Z,0
2016-04-20T20:25:00.688Z,0
2016-04-20T20:26:00.753Z,0
2016-04-20T20:27:00.646Z,0
2016-04-20T20:28:00.634Z,0
2016-04-20T20:29:00.636Z,0
2016-04-20T20:30:00.607Z,0
2016-04-20T20:31:00.595Z,0
2016-04-20T20:32:00.582Z,0
2016-04-20T20:33:00.553Z,0
2016-04-20T20:34:00.540Z,0
2016-04-20T20:35:00.574Z,0
2016-04-20T20:36:00.514Z,0
2016-04-20T20:37:00.563Z,0
2016-04-20T20:38:00.489Z,0
2016-04-20T20:39:00.476Z,0
2016-04-20T20:40:00.462Z,0
2016-04-20T20:41:00.434Z,0
2016-04-20T20:42:00.437Z,0
2016-04-20T20:43:00.423Z,0
2016-04-20T20:44:00.410Z,0
2016-04-20T20:45:00.429Z,0
2016-04-20T20:46:00.415Z,0
2016-04-20T20:47:00.357Z,0
2016-04-20T20:48:00.343Z,0
2016-04-20T20:49:00.345Z,0
2016-04-20T20:50:00.318Z,0
2016-04-20T20:51:00.351Z,0
2016-04-20T20:52:00.306Z,0
2016-04-20T20:53:00.294Z,0
2016-04-20T20:54:00.267Z,0
2016-04-20T20:55:00.253Z,0
2016-04-20T20:56:00.240Z,0
2016-04-20T20:57:00.211Z,0
2016-04-20T20:58:00.214Z,0
2016-04-20T20:59:00.200Z,0
2016-04-20T21:00:04.486Z,0
2016-04-20T21:01:00.160Z,0
2016-04-20T21:02:00.195Z,0
2016-04-20T21:03:00.134Z,0
2016-04-20T21:04:00.123Z,0
2016-04-20T21:05:00.093Z,0
2016-04-20T21:06:00.081Z,0
2016-04-20T21:07:00.067Z,0
2016-04-20T21:08:00.054Z,0
2016-04-20T21:09:00.041Z,0
2016-04-20T21:10:00.028Z,0
2016-04-20T21:10:59.267Z,0
2016-04-20T21:12:00.002Z,0
2016-04-20T21:13:00.036Z,0
2016-04-20T21:13:59.992Z,0
2016-04-20T21:14:59.964Z,0
2016-04-20T21:15:59.951Z,0
2016-04-20T21:16:59.953Z,0
2016-04-20T21:17:59.910Z,0
2016-04-20T21:18:59.881Z,0
2016-04-20T21:19:59.899Z,0
2016-04-20T21:20:59.855Z,0
2016-04-20T21:21:59.857Z,0
2016-04-20T21:22:59.829Z,0
2016-04-20T21:23:59.863Z,0
2016-04-20T21:24:59.804Z,0
2016-04-20T21:25:59.790Z,0
2016-04-20T21:26:59.777Z,0
2016-04-20T21:27:59.749Z,0
2016-04-20T21:28:59.752Z,0
2016-04-20T21:29:59.723Z,0
2016-04-20T21:30:59.726Z,0
2016-04-20T21:31:59.698Z,0
2016-04-20T21:32:59.684Z,0
2016-04-20T21:33:59.687Z,0
2016-04-20T21:34:59.643Z,0
2016-04-20T21:35:59.489Z,0
2016-04-20T21:36:59.648Z,0
2016-04-20T21:37:59.620Z,0
2016-04-20T21:38:59.607Z,0
2016-04-20T21:39:59.563Z,0
2016-04-20T21:40:59.440Z,0
2016-04-20T21:41:59.536Z,0
2016-04-20T21:42:59.555Z,0
2016-04-20T21:43:59.526Z,0
2016-04-20T21:44:59.529Z,0
2016-04-20T21:45:59.485Z,0
2016-04-20T21:46:59.472Z,0
2016-04-20T21:47:59.474Z,0
2016-04-20T21:48:59.430Z,0